createdAt,value
2023-01-21T00:01:03.910Z,30.02
2023-01-21T00:06:06.500Z,35.00
2023-01-21T00:11:14.500Z,30.45
2023-01-21T00:16:16.548Z,28.42
2023-01-21T00:21:18.303Z,31.13
2023-01-21T00:26:19.918Z,32.50
2023-01-21T00:31:22.577Z,29.70
2023-01-21T00:36:29.638Z,30.23
2023-01-21T00:41:31.245Z,30.15
2023-01-21T00:46:32.961Z,32.03
2023-01-21T00:51:34.588Z,31.80
2023-01-21T00:56:36.343Z,35.17
2023-01-21T01:01:38.586Z,32.65
2023-01-21T01:06:40.367Z,33.67
2023-01-21T01:11:42.065Z,34.05
2023-01-21T01:16:43.752Z,30.83
2023-01-21T01:21:45.467Z,34.72
2023-01-21T01:26:47.157Z,36.28
2023-01-21T01:31:48.870Z,37.75
2023-01-21T01:36:50.554Z,34.80
2023-01-21T01:41:53.578Z,35.90
2023-01-21T01:46:58.382Z,37.25
2023-01-21T01:52:03.157Z,35.47
2023-01-21T01:57:08.211Z,40.08
2023-01-21T02:02:14.126Z,34.20
2023-01-21T02:07:19.083Z,36.60
2023-01-21T02:12:21.920Z,35.50
2023-01-21T02:17:35.571Z,35.95
2023-01-21T02:23:15.487Z,39.67
2023-01-21T02:28:37.865Z,44.85
2023-01-21T02:34:00.552Z,35.35
2023-01-21T02:39:21.023Z,35.40
2023-01-21T02:44:43.036Z,35.83
2023-01-21T02:50:03.200Z,31.05
2023-01-21T02:55:12.451Z,29.52
2023-01-21T03:00:27.895Z,29.80
2023-01-21T03:06:14.643Z,26.92
2023-01-21T03:11:19.406Z,30.20
2023-01-21T03:16:46.256Z,25.23
2023-01-21T03:21:50.424Z,24.95
2023-01-21T03:26:57.810Z,23.80
2023-01-21T03:32:06.357Z,23.60
2023-01-21T03:37:14.319Z,21.38
2023-01-21T03:42:16.533Z,21.25
2023-01-21T03:47:39.155Z,25.52
2023-01-21T03:52:42.505Z,21.05
2023-01-21T03:57:44.216Z,20.15
2023-01-21T04:02:45.955Z,19.20
2023-01-21T04:07:47.645Z,20.23
2023-01-21T04:12:49.513Z,19.48
2023-01-21T04:17:51.389Z,19.00
2023-01-21T04:22:53.204Z,21.08
2023-01-21T04:27:54.800Z,18.08
2023-01-21T04:32:57.148Z,21.95
2023-01-21T04:37:59.003Z,22.85
2023-01-21T04:43:00.675Z,21.73
2023-01-21T04:48:02.297Z,21.65
2023-01-21T04:53:03.987Z,22.50
2023-01-21T04:58:05.588Z,21.95
2023-01-21T05:03:07.265Z,22.17
2023-01-21T05:08:09.015Z,23.67
2023-01-21T05:13:10.943Z,22.75
2023-01-21T05:18:12.799Z,27.88
2023-01-21T05:23:14.434Z,20.63
2023-01-21T05:28:16.565Z,23.35
2023-01-21T05:33:18.211Z,20.40
2023-01-21T05:38:19.831Z,21.00
2023-01-21T05:43:21.413Z,22.45
2023-01-21T05:48:23.150Z,17.90
2023-01-21T05:53:25.272Z,17.50
2023-01-21T05:58:27.644Z,18.58
2023-01-21T06:03:29.351Z,16.23
2023-01-21T06:08:31.121Z,17.27
2023-01-21T06:13:32.752Z,15.77
2023-01-21T06:18:34.795Z,16.42
2023-01-21T06:23:36.439Z,16.33
2023-01-21T06:28:38.032Z,14.80
2023-01-21T06:33:39.658Z,15.93
2023-01-21T06:38:41.327Z,16.70
2023-01-21T06:43:43.136Z,16.02
2023-01-21T06:48:44.806Z,17.27
2023-01-21T06:53:46.373Z,16.45
2023-01-21T06:58:48.223Z,17.00
2023-01-21T07:03:49.852Z,16.42
2023-01-21T07:08:51.432Z,13.68
2023-01-21T07:13:53.274Z,16.83
2023-01-21T07:18:54.875Z,19.98
2023-01-21T07:23:56.676Z,18.08
2023-01-21T07:29:00.370Z,18.00
2023-01-21T07:34:03.945Z,21.80
2023-01-21T07:39:05.625Z,19.70
2023-01-21T07:44:07.291Z,15.57
2023-01-21T07:49:09.719Z,16.75
2023-01-21T07:54:12.850Z,16.02
2023-01-21T07:59:15.127Z,14.35
2023-01-21T08:04:16.982Z,14.98
2023-01-21T08:09:18.832Z,13.93
2023-01-21T08:14:20.403Z,13.35
2023-01-21T08:19:22.096Z,10.73
2023-01-21T08:24:23.908Z,15.50
2023-01-21T08:29:26.080Z,14.02
2023-01-21T08:34:27.845Z,11.52
2023-01-21T08:39:29.485Z,13.82
2023-01-21T08:44:31.286Z,13.05
2023-01-21T08:49:32.882Z,11.82
2023-01-21T08:54:34.631Z,12.38
2023-01-21T08:59:36.586Z,11.73
2023-01-21T09:04:38.205Z,11.48
2023-01-21T09:09:40.015Z,13.45
2023-01-21T09:14:41.722Z,10.57
2023-01-21T09:19:43.328Z,13.60
2023-01-21T09:24:44.967Z,12.90
2023-01-21T09:29:46.608Z,13.45
2023-01-21T09:34:48.219Z,12.77
2023-01-21T09:39:50.002Z,14.93
2023-01-21T09:44:55.381Z,12.88
2023-01-21T09:50:05.395Z,11.68
2023-01-21T09:55:35.091Z,10.82
2023-01-21T10:00:52.878Z,10.35
2023-01-21T10:06:04.590Z,10.00
2023-01-21T10:11:27.539Z,9.80
2023-01-21T10:16:54.226Z,11.68
2023-01-21T10:22:03.246Z,11.07
2023-01-21T10:27:05.587Z,12.00
2023-01-21T10:32:12.797Z,8.13
2023-01-21T10:37:55.860Z,9.55
2023-01-21T10:43:08.015Z,7.97
2023-01-21T10:48:23.165Z,11.50
2023-01-21T10:53:45.214Z,9.45
2023-01-21T10:58:52.446Z,7.90
2023-01-21T11:03:58.285Z,8.65
2023-01-21T11:09:03.851Z,14.38
2023-01-21T11:14:05.710Z,9.13
2023-01-21T11:19:08.112Z,8.23
2023-01-21T11:24:24.839Z,7.88
2023-01-21T11:29:29.258Z,11.05
2023-01-21T11:34:31.235Z,8.50
2023-01-21T11:39:40.469Z,11.30
2023-01-21T11:44:52.648Z,8.70
2023-01-21T11:49:54.305Z,8.40
2023-01-21T11:54:55.912Z,11.00
2023-01-21T12:00:08.389Z,8.95
2023-01-21T12:05:37.036Z,8.30
2023-01-21T12:10:44.156Z,9.07
2023-01-21T12:15:54.835Z,6.88
2023-01-21T12:20:59.536Z,9.65
2023-01-21T12:26:27.583Z,8.75
2023-01-21T12:31:33.794Z,10.18
2023-01-21T12:37:04.951Z,11.93
2023-01-21T12:42:14.176Z,15.68
2023-01-21T12:47:29.606Z,19.35
2023-01-21T12:52:45.868Z,10.30
2023-01-21T12:57:56.715Z,10.82
2023-01-21T13:03:26.044Z,9.48
2023-01-21T13:08:47.207Z,11.13
2023-01-21T13:14:07.074Z,7.72
2023-01-21T13:19:12.945Z,8.02
2023-01-21T13:24:15.322Z,9.02
2023-01-21T13:30:04.870Z,10.82
2023-01-21T13:35:27.875Z,9.50
2023-01-21T13:41:14.435Z,9.23
2023-01-21T13:46:47.707Z,9.55
2023-01-21T13:51:55.164Z,11.73
2023-01-21T13:57:18.321Z,10.80
2023-01-21T14:02:31.976Z,10.32
2023-01-21T14:07:49.842Z,10.07
2023-01-21T14:13:09.435Z,8.17
2023-01-21T14:18:26.253Z,11.23
2023-01-21T14:23:37.081Z,12.52
2023-01-21T14:28:52.021Z,15.52
2023-01-21T14:34:04.903Z,11.38
2023-01-21T14:39:34.316Z,10.63
2023-01-21T14:44:40.711Z,9.50
2023-01-21T14:49:45.347Z,14.95
2023-01-21T14:54:48.561Z,10.00
2023-01-21T14:59:52.492Z,11.10
2023-01-21T15:05:00.055Z,15.40
2023-01-21T15:10:10.816Z,11.07
2023-01-21T15:16:04.082Z,10.00
2023-01-21T15:21:36.353Z,11.70
2023-01-21T15:26:42.233Z,13.48
2023-01-21T15:31:44.867Z,27.60
2023-01-21T15:36:50.372Z,11.65
2023-01-21T15:42:12.747Z,10.38
2023-01-21T15:47:38.484Z,13.07
2023-01-21T15:53:22.492Z,13.15
2023-01-21T15:58:48.346Z,13.25
2023-01-21T16:04:15.103Z,17.50
2023-01-21T16:09:31.534Z,12.93
2023-01-21T16:14:52.504Z,13.93
2023-01-21T16:19:58.173Z,9.57
2023-01-21T16:25:04.393Z,12.80
2023-01-21T16:30:12.578Z,12.07
2023-01-21T16:35:14.614Z,7.83
2023-01-21T16:40:27.064Z,13.20
2023-01-21T16:45:28.812Z,19.48
2023-01-21T16:50:32.779Z,12.15
2023-01-21T16:55:45.291Z,14.55
2023-01-21T17:01:00.028Z,26.35
2023-01-21T17:06:30.962Z,18.35
2023-01-21T17:11:34.265Z,16.15
2023-01-21T17:16:40.760Z,21.08
2023-01-21T17:21:49.917Z,25.40
2023-01-21T17:27:00.906Z,14.07
2023-01-21T17:32:06.537Z,14.63
2023-01-21T17:37:44.340Z,12.30
2023-01-21T17:42:45.997Z,14.38
2023-01-21T17:48:08.079Z,12.60
2023-01-21T17:53:21.583Z,19.08
2023-01-21T17:58:32.372Z,22.27
2023-01-21T18:03:33.975Z,16.10
2023-01-21T18:08:35.788Z,16.85
2023-01-21T18:13:37.398Z,17.75
2023-01-21T18:18:39.776Z,17.30
2023-01-21T18:23:41.372Z,18.45
2023-01-21T18:28:43.210Z,21.52
2023-01-21T18:33:44.920Z,21.55
2023-01-21T18:38:47.881Z,26.42
2023-01-21T18:43:49.564Z,32.10
2023-01-21T18:48:51.327Z,23.23
2023-01-21T18:53:53.345Z,21.05
2023-01-21T18:58:55.110Z,18.98
2023-01-21T19:03:56.800Z,16.17
2023-01-21T19:08:58.453Z,16.70
2023-01-21T19:14:01.355Z,18.33
2023-01-21T19:19:19.091Z,17.65
2023-01-21T19:24:20.851Z,16.42
2023-01-21T19:29:26.698Z,19.08
2023-01-21T19:34:28.299Z,20.02
2023-01-21T19:39:32.795Z,18.67
2023-01-21T19:44:34.383Z,22.48
2023-01-21T19:49:36.003Z,22.73
2023-01-21T19:54:37.603Z,21.67
2023-01-21T19:59:39.409Z,21.95
2023-01-21T20:04:41.000Z,23.48
2023-01-21T20:09:42.944Z,23.60
2023-01-21T20:14:44.978Z,24.85
2023-01-21T20:19:47.361Z,21.95
2023-01-21T20:24:49.189Z,20.80
2023-01-21T20:30:02.858Z,24.90
2023-01-21T20:35:15.688Z,25.23
2023-01-21T20:40:25.058Z,24.42
2023-01-21T20:45:33.467Z,24.40
2023-01-21T20:50:35.548Z,25.15
2023-01-21T20:55:38.522Z,26.08
2023-01-21T21:00:41.118Z,25.38
2023-01-21T21:05:42.801Z,25.27
2023-01-21T21:10:44.829Z,26.67
2023-01-21T21:15:48.558Z,23.90
2023-01-21T21:20:51.882Z,28.27
2023-01-21T21:25:55.393Z,27.05
2023-01-21T21:30:57.257Z,25.50
2023-01-21T21:35:58.891Z,25.17
2023-01-21T21:41:20.472Z,25.48
2023-01-21T21:46:40.295Z,26.85
2023-01-21T21:51:43.069Z,21.85
2023-01-21T21:56:47.432Z,23.70
2023-01-21T22:01:49.169Z,24.90
2023-01-21T22:06:50.797Z,24.92
2023-01-21T22:11:52.403Z,25.38
2023-01-21T22:16:54.521Z,24.35
2023-01-21T22:21:56.178Z,27.40
2023-01-21T22:26:57.784Z,24.92
2023-01-21T22:31:59.595Z,26.85
2023-01-21T22:37:01.264Z,26.92
2023-01-21T22:42:05.061Z,28.90
2023-01-21T22:47:06.720Z,29.60
2023-01-21T22:52:08.343Z,27.38
2023-01-21T22:57:10.019Z,22.13
2023-01-21T23:02:11.959Z,21.65
2023-01-21T23:07:14.144Z,25.70
2023-01-21T23:12:18.736Z,25.85
2023-01-21T23:17:20.521Z,27.73
2023-01-21T23:22:22.131Z,20.85
2023-01-21T23:27:23.843Z,24.80
2023-01-21T23:32:25.633Z,25.02
2023-01-21T23:37:27.325Z,26.17
2023-01-21T23:42:28.934Z,24.58
2023-01-21T23:47:30.514Z,23.70
2023-01-21T23:52:32.124Z,24.63
2023-01-21T23:57:33.826Z,28.08
